• Join FlightAware (Why Join?)
  • Login
  • US Flag 
08:27AM EDT


 

Airport Tracker/Info


-or-


 

Live Flight TrackerFlight Track Log ✈ UCA3596 ✈ 08-Oct-2013 ✈ KIAD - KBGM

Flight Track Log - Related Links

Times and Time Zones

All times are in EDT time to prevent confusion due to time zone crossing. See the UCA3596 flight status page for this flight to view local times or setup timezone preferences in your user account.

Time Position Orientation Groundspeed Altitude Reporting Facility
EDT Latitude Longitude Course Direction KTS MPH feet Rate Location/Type
01:34PM 39.3182 -77.2991 19° North  Level Estimated
01:35PM 39.3800 -77.2722 19° North  Level Estimated
01:36PM 39.4417 -77.2451 19° North  Level Estimated
01:37PM 39.5035 -77.2181 19° North  Level Estimated
01:38PM 39.5652 -77.1910 19° North  Level Estimated
01:39PM 39.6270 -77.1638 19° North  Level Estimated
01:40PM 39.6887 -77.1366 19° North  Level Estimated
01:41PM 39.7505 -77.1093 19° North  Level Estimated
01:42PM 39.8122 -77.0820 19° North  Level Estimated
01:43PM 39.8739 -77.0547 19° North  Level Estimated
01:44PM 39.9356 -77.0273 19° North  Level Estimated
01:45PM 39.9973 -76.9998 19° North  Level Estimated
01:46PM 40.0590 -76.9723 19° North  Level Estimated
01:47PM 40.1207 -76.9448 19° North  Level Estimated
01:48PM 40.1824 -76.9172 19° North  Level Estimated
01:49PM 40.2441 -76.8895 19° North  Level Estimated
01:50PM 40.3058 -76.8618 19° North  Level Estimated
01:51PM 40.3674 -76.8341 19° North  Level Estimated
01:52PM 40.4291 -76.8063 19° North  Level Estimated
01:53PM 40.4907 -76.7784 19° North  Level Estimated
01:54PM 40.5524 -76.7505 19° North  Level Estimated
01:55PM 40.6140 -76.7225 19° North  Level Estimated
01:56PM 40.6757 -76.6945 19° North  Level Estimated
01:57PM 40.7373 -76.6665 19° North  Level Estimated
01:58PM 40.7989 -76.6383 19° North  Level Estimated
01:59PM 40.8605 -76.6102 19° North  Level Estimated
02:00PM 40.9221 -76.5819 19° North  Level Estimated
02:01PM 40.9837 -76.5537 19° North  Level Estimated
02:02PM 41.0453 -76.5253 19° North  Level Estimated
02:03PM 41.1069 -76.4970 19° North  Level Estimated
02:04PM 41.1685 -76.4685 19° North  Level Estimated
02:05PM 41.2301 -76.4400 19° North  Level Estimated
02:06PM 41.2916 -76.4115 19° North  Level Estimated
02:07PM 41.3532 -76.3829 19° North  Level Estimated
02:08PM 41.4147 -76.3543 19° North  Level Estimated
02:09PM 41.4924 -76.3180 19° North  Level Estimated
02:10PM 41.5700 -76.2817 19° North  Level Estimated
02:11PM 41.6477 -76.2453 19° North  Level Estimated
02:12PM 41.7253 -76.2088 19° North  Level Estimated
02:13PM 41.8029 -76.1722 19° North  Level Estimated
02:14PM 41.8805 -76.1356 19° North  Level Estimated
02:15PM 41.9581 -76.0988 19° North  Level Estimated
02:16PM 42.0357 -76.0620 19° North  Level Estimated
02:17PM 42.1133 -76.0250 19° North  Level Estimated
02:18PM 42.1908 -75.9880 19° North  Level Estimated
02:19PM 42.2084 -75.9796 20° North  Level Estimated
02:20PM 42.2084 -75.9796 35° Northeast  Level Estimated
02:21PM 42.2084 -75.9796 35° Northeast  Level Estimated
02:22PM 42.2084 -75.9796 35° Northeast  Level Estimated
02:23PM 42.2084 -75.9796 35° Northeast  Level Estimated
02:24PM 42.2084 -75.9796 35° Northeast  Level Estimated
02:25PM 42.2084 -75.9796 35° Northeast  Level Estimated
02:26PM 42.2084 -75.9796 35° Northeast  Level Estimated